TimeCST,TemperatureF,Dew PointF,Humidity,Sea Level PressureIn,VisibilityMPH,Wind Direction,Wind SpeedMPH,Gust SpeedMPH,PrecipitationIn,Events,Conditions,WindDirDegrees,DateUTC
12:53 AM,61.0,55.9,83,30.12,10.0,ESE,6.9,-,N/A,,Clear,110,2012-11-11 06:53:00
1:53 AM,61.0,55.9,83,30.11,10.0,East,5.8,-,N/A,,Clear,100,2012-11-11 07:53:00
2:53 AM,60.1,55.0,83,30.09,10.0,East,8.1,-,N/A,,Clear,100,2012-11-11 08:53:00
3:53 AM,61.0,55.9,83,30.09,10.0,ESE,8.1,-,N/A,,Clear,110,2012-11-11 09:53:00
4:53 AM,62.1,57.9,86,30.09,10.0,ESE,8.1,-,N/A,,Clear,110,2012-11-11 10:53:00
5:53 AM,62.1,59.0,90,30.09,10.0,ESE,8.1,-,N/A,,Clear,120,2012-11-11 11:53:00
6:53 AM,63.0,59.0,87,30.10,10.0,ESE,6.9,-,N/A,,Clear,110,2012-11-11 12:53:00
7:53 AM,66.2,60.8,83,30.12,10.0,East,6.9,-,N/A,,Clear,100,2012-11-11 13:53:00
8:53 AM,70.0,61.0,73,30.12,10.0,ESE,9.2,-,N/A,,Clear,120,2012-11-11 14:53:00
9:53 AM,77.0,62.1,60,30.12,10.0,SE,13.8,27.6,N/A,,Clear,140,2012-11-11 15:53:00
10:53 AM,80.1,61.0,52,30.11,10.0,SSE,16.1,28.8,N/A,,Scattered Clouds,150,2012-11-11 16:53:00
11:53 AM,78.1,59.0,52,30.10,10.0,South,25.3,31.1,N/A,,Overcast,170,2012-11-11 17:53:00
12:53 PM,79.0,59.0,50,30.06,10.0,SE,20.7,27.6,N/A,,Mostly Cloudy,140,2012-11-11 18:53:00
1:53 PM,79.0,60.1,52,30.06,10.0,SE,21.9,27.6,N/A,,Overcast,140,2012-11-11 19:53:00
2:53 PM,79.0,61.0,54,30.04,10.0,SE,13.8,23.0,N/A,,Mostly Cloudy,130,2012-11-11 20:53:00
3:53 PM,78.1,60.1,54,30.04,10.0,SE,18.4,32.2,N/A,,Mostly Cloudy,140,2012-11-11 21:53:00
4:53 PM,75.0,61.0,62,30.04,10.0,SE,16.1,-,N/A,,Mostly Cloudy,130,2012-11-11 22:53:00
5:53 PM,73.9,62.1,66,30.06,10.0,SE,12.7,-,N/A,,Mostly Cloudy,140,2012-11-11 23:53:00
6:53 PM,73.4,62.6,69,30.08,10.0,SSE,12.7,20.7,N/A,,Overcast,150,2012-11-12 00:53:00
7:53 PM,73.0,64.9,76,30.08,10.0,ESE,15.0,20.7,N/A,,Overcast,120,2012-11-12 01:53:00
8:53 PM,72.0,64.9,78,30.09,10.0,SSE,13.8,21.9,N/A,,Overcast,150,2012-11-12 02:53:00
9:53 PM,71.1,66.0,84,30.09,8.0,SSE,16.1,-,0.00,Rain,Light Rain,150,2012-11-12 03:53:00
10:53 PM,69.1,68.0,96,30.12,2.0,South,6.9,-,0.07,Rain,Heavy Rain,190,2012-11-12 04:53:00
11:01 PM,68.0,68.0,100,30.11,1.8,SSE,6.9,-,0.09,Rain,Rain,150,2012-11-12 05:01:00
11:05 PM,68.0,68.0,100,30.11,3.0,SSE,10.4,-,0.10,Rain,Rain,150,2012-11-12 05:05:00
11:17 PM,69.8,68.0,94,30.11,4.0,SSE,8.1,-,0.14,Rain,Light Rain,150,2012-11-12 05:17:00
11:40 PM,69.8,68.0,94,30.10,2.5,South,6.9,-,0.18,Rain,Rain,170,2012-11-12 05:40:00
11:44 PM,69.8,68.0,94,30.10,2.5,South,6.9,-,0.19,Rain,Rain,170,2012-11-12 05:44:00
11:53 PM,69.1,68.0,96,30.10,2.5,SSE,8.1,-,0.24,Rain,Rain,160,2012-11-12 05:53:00
11:58 PM,69.8,68.0,94,30.10,3.0,SSE,6.9,-,0.02,Rain,Rain,160,2012-11-12 05:58:00